Airfield :
LOGIN :

Register | Disclaimer

   EN    FR    IT 

 










Legend :    VFR   Marginal VFR   IFR   Intensive IFR   Very Intensive IFR
Visi :
Ceiling :
>= 8 km
>= 3000ft
5 to 8 km
1000 to 3000 ft
1500m to 5 km
500 to 1000 ft
800 to 1500m
200 to 500 ft
< 800m
< 200 ft
Symbols :   Thunderstorms  Fog  Heavy snow  Heavy precipitations  Wind > 20 kt
SIGMETs :     Misc.  Thunderstorms  Icing  Turbulence  Mountain Waves  Volcanic Ashes







- Airport Elevation : 1339 ft


ETHN - Niederstetten

CURRENT METAR :
  • 231920Z 31017KT 9999 -RADZ SCT008 BKN020 11/10 Q1012 WHT

EXPIRED METARs :
  • 231820Z 29018KT 9999 -RA SCT010 BKN018 13/10 Q1009 RETSRA WHT
  • 231741Z 29018KT 9999 TSRA FEW010 SCT030CB BKN070 14/13 Q1007 BLU

Expired Forecast.
No reported NOTAMs for that airfield.
5 SIGMETs reported for the Langen FIR (EDGG) :
 
Squall lined thunderstorms
EDGG SIGMET 9 VALID 231730/231930 EDZF
EDGG LANGEN FIR SQL TS OBS APRX 50NM WID LINE BTN N4812 E00718 - N4842 E00902 - N4904 E01017 - N4919 E01118 TOP FL350 MOV SE NC=
Severe turbulence
EDGG SIGMET 8 VALID 231700/232000 EDZF
EDGG LANGEN FIR SEV TURB FCST WI N4858 E01021 - N4825 E00944 - N4741 E00939 - N4733 E00748 - N4803 E00754 - N4832 E00807 - N4854 E00826 - N4858 E01021 SFC/FL100 MOV E WKN=
Severe turbulence
EDGG SIGMET 7 VALID 231700/232000 EDZF
EDGG LANGEN FIR SEV TURB FCST WI N5048 E01044 - N4921 E01105 - N4858 E01017 - N4856 E00809 - N4901 E00710 - N4951 E00829 - N5029 E00942 - N5048 E01044 SFC/FL060 MOV E WKN=
Severe turbulence
EDGG SIGMET 11 VALID 232000/232100 EDZF
EDGG LANGEN FIR SEV TURB FCST S OF N4900 SFC/FL100 MOV SE WKN=
Severe turbulence
EDGG SIGMET 10 VALID 231730/232130 EDZF
EDGG LANGEN FIR SEV TURB FCST WI N5204 E00901 - N5127 E00910 - N5124 E01046 - N5030 E01048 - N4920 E00744 - N5034 E00627 - N5120 E00713 - N5204 E00901 FL160/245 MOV E WKN=



MET'MAP, your aeronautical weather chart ! - Copyright ORBIFLY December 2007 - Disclaimer

ORBIFLY MET'MAP TEAM :

Programming & Development : Alexandra Zaïnal
Concept & Development : Baudouin d'Aumeries
Co-Development & Prog : Marc-Olivier Méhu
Technical & hardware support : Manuel Goepfert

Contact : metmap@orbifly.com




SOURCES & CREDITS :

   NOAA